createdAt,value
2019-04-20T00:01:58.152Z,64.10
2019-04-20T00:04:28.799Z,64.20
2019-04-20T00:06:54.807Z,63.90
2019-04-20T00:09:29.056Z,64.20
2019-04-20T00:12:03.902Z,63.90
2019-04-20T00:14:29.633Z,63.30
2019-04-20T00:16:56.850Z,64.40
2019-04-20T00:19:33.675Z,63.40
2019-04-20T00:22:01.900Z,62.90
2019-04-20T00:24:33.939Z,61.90
2019-04-20T00:27:22.402Z,61.50
2019-04-20T00:29:52.377Z,62.90
2019-04-20T00:32:12.466Z,62.00
2019-04-20T00:34:36.543Z,62.60
2019-04-20T00:37:02.349Z,63.60
2019-04-20T00:39:33.941Z,63.90
2019-04-20T00:42:06.590Z,63.90
2019-04-20T00:44:36.213Z,65.00
2019-04-20T00:47:16.989Z,64.30
2019-04-20T00:49:48.424Z,64.40
2019-04-20T00:52:27.677Z,64.20
2019-04-20T00:54:34.887Z,63.20
2019-04-20T00:57:16.775Z,64.00
2019-04-20T00:59:57.192Z,64.10
2019-04-20T01:02:20.746Z,64.80
2019-04-20T01:04:56.460Z,65.50
2019-04-20T01:07:26.327Z,65.40
2019-04-20T01:10:04.662Z,65.60
2019-04-20T01:12:36.813Z,66.30
2019-04-20T01:15:09.436Z,65.60
2019-04-20T01:17:37.778Z,66.30
2019-04-20T01:20:07.179Z,65.00
2019-04-20T01:22:44.363Z,63.90
2019-04-20T01:25:15.140Z,64.60
2019-04-20T01:27:49.697Z,65.60
2019-04-20T01:30:17.450Z,66.80
2019-04-20T01:32:55.379Z,66.60
2019-04-20T01:35:27.215Z,65.70
2019-04-20T01:38:00.181Z,65.40
2019-04-20T01:40:11.692Z,65.60
2019-04-20T01:42:42.562Z,66.40
2019-04-20T01:45:17.852Z,66.30
2019-04-20T01:47:46.171Z,66.00
2019-04-20T01:50:22.119Z,66.30
2019-04-20T01:52:58.049Z,66.70
2019-04-20T01:55:38.657Z,66.20
2019-04-20T02:00:45.227Z,66.70
2019-04-20T02:03:36.884Z,68.70
2019-04-20T02:06:08.470Z,69.00
2019-04-20T02:08:34.238Z,69.30
2019-04-20T02:11:05.833Z,69.80
2019-04-20T02:13:43.675Z,69.30
2019-04-20T02:16:11.459Z,69.20
2019-04-20T02:18:44.097Z,69.70
2019-04-20T02:21:25.922Z,68.50
2019-04-20T02:23:45.749Z,69.60
2019-04-20T02:26:07.039Z,69.80
2019-04-20T02:29:01.974Z,70.10
2019-04-20T02:31:44.556Z,69.80
2019-04-20T02:37:33.358Z,69.20
2019-04-20T02:39:55.896Z,68.30
2019-04-20T02:42:24.873Z,70.50
2019-04-20T02:45:01.072Z,71.70
2019-04-20T02:47:25.330Z,72.00
2019-04-20T02:49:51.807Z,71.30
2019-04-20T02:52:30.318Z,69.30
2019-04-20T02:54:53.551Z,69.10
2019-04-20T02:57:35.969Z,68.00
2019-04-20T03:02:13.011Z,65.40
2019-04-20T03:04:32.648Z,67.00
2019-04-20T03:07:09.063Z,66.70
2019-04-20T03:09:45.716Z,66.10
2019-04-20T03:12:18.732Z,65.40
2019-04-20T03:14:39.697Z,64.10
2019-04-20T03:17:15.268Z,63.30
2019-04-20T03:19:41.133Z,63.30
2019-04-20T03:22:24.645Z,63.60
2019-04-20T03:24:50.021Z,63.80
2019-04-20T03:27:15.737Z,63.70
2019-04-20T03:30:22.856Z,63.20
2019-04-20T03:35:12.054Z,66.60
2019-04-20T03:37:42.691Z,67.00
2019-04-20T03:40:04.402Z,67.00
2019-04-20T03:42:20.077Z,67.90
2019-04-20T03:44:57.928Z,67.20
2019-04-20T03:47:30.373Z,69.00
2019-04-20T03:50:14.794Z,70.80
2019-04-20T03:52:36.432Z,70.40
2019-04-20T03:55:25.916Z,69.50
2019-04-20T03:58:00.125Z,68.70
2019-04-20T04:00:42.544Z,69.70
2019-04-20T04:03:20.253Z,68.40
2019-04-20T04:05:50.921Z,68.90
2019-04-20T04:08:17.070Z,69.50
2019-04-20T04:10:54.732Z,70.60
2019-04-20T04:13:12.018Z,71.20
2019-04-20T04:15:48.382Z,70.20
2019-04-20T04:18:23.019Z,70.00
2019-04-20T04:20:53.282Z,69.90
2019-04-20T04:23:35.676Z,69.60
2019-04-20T04:26:03.527Z,70.40
2019-04-20T04:28:35.235Z,70.90
2019-04-20T04:31:09.427Z,70.70
2019-04-20T04:36:00.629Z,67.40
2019-04-20T04:38:42.344Z,65.60
2019-04-20T04:41:17.073Z,64.10
2019-04-20T04:43:37.303Z,64.60
2019-04-20T04:45:48.987Z,63.60
2019-04-20T04:48:23.864Z,64.70
2019-04-20T04:50:56.299Z,66.60
2019-04-20T04:53:30.281Z,66.80
2019-04-20T04:55:56.505Z,66.20
2019-04-20T04:58:19.623Z,65.50
2019-04-20T05:00:49.319Z,65.70
2019-04-20T05:03:37.345Z,66.00
2019-04-20T05:06:06.654Z,65.00
2019-04-20T05:08:30.434Z,64.20
2019-04-20T05:10:54.044Z,64.60
2019-04-20T05:13:26.790Z,65.40
2019-04-20T05:16:11.076Z,65.30
2019-04-20T05:18:44.823Z,65.50
2019-04-20T05:21:18.816Z,65.00
2019-04-20T05:23:53.371Z,64.80
2019-04-20T05:26:37.520Z,63.60
2019-04-20T05:28:58.985Z,64.40
2019-04-20T05:31:24.512Z,64.00
2019-04-20T05:34:15.729Z,63.90
2019-04-20T05:36:41.427Z,63.80
2019-04-20T05:39:23.835Z,64.10
2019-04-20T05:41:41.968Z,62.70
2019-04-20T05:44:10.144Z,63.80
2019-04-20T05:46:48.229Z,64.20
2019-04-20T05:49:22.072Z,64.10
2019-04-20T05:51:45.999Z,63.80
2019-04-20T05:54:23.509Z,63.50
2019-04-20T05:56:45.863Z,63.80
2019-04-20T05:59:17.240Z,65.50
2019-04-20T06:01:52.791Z,68.10
2019-04-20T06:04:22.477Z,68.20
2019-04-20T06:06:53.548Z,68.30
2019-04-20T06:09:22.724Z,68.20
2019-04-20T06:12:02.737Z,70.40
2019-04-20T06:14:28.597Z,70.40
2019-04-20T06:17:10.960Z,70.00
2019-04-20T06:19:46.668Z,68.70
2019-04-20T06:22:19.133Z,68.50
2019-04-20T06:25:01.662Z,67.50
2019-04-20T06:27:16.035Z,68.10
2019-04-20T06:29:49.785Z,67.30
2019-04-20T06:32:21.475Z,66.40
2019-04-20T06:34:41.581Z,66.20
2019-04-20T06:37:12.561Z,66.40
2019-04-20T06:39:47.480Z,65.60
2019-04-20T06:42:17.677Z,64.50
2019-04-20T06:44:46.334Z,64.30
2019-04-20T06:47:17.652Z,65.50
2019-04-20T06:49:48.647Z,64.10
2019-04-20T06:52:26.206Z,63.50
2019-04-20T06:54:48.322Z,64.20
2019-04-20T06:57:25.549Z,64.10
2019-04-20T06:59:55.066Z,64.20
2019-04-20T07:02:29.648Z,64.40
2019-04-20T07:05:02.519Z,64.10
2019-04-20T07:07:27.964Z,63.40
2019-04-20T07:09:59.853Z,62.90
2019-04-20T07:12:24.090Z,63.50
2019-04-20T07:14:47.457Z,62.70
2019-04-20T07:17:43.808Z,65.70
2019-04-20T07:23:09.773Z,65.50
2019-04-20T07:25:26.269Z,65.20
2019-04-20T07:27:58.289Z,63.50
2019-04-20T07:30:29.960Z,62.60
2019-04-20T07:33:04.106Z,62.60
2019-04-20T07:35:30.395Z,61.80
2019-04-20T07:38:21.307Z,63.10
2019-04-20T07:42:59.276Z,63.50
2019-04-20T07:45:42.386Z,63.40
2019-04-20T07:48:06.160Z,62.30
2019-04-20T07:50:25.116Z,61.80
2019-04-20T07:52:51.079Z,61.50
2019-04-20T07:55:42.224Z,60.60
2019-04-20T07:57:55.238Z,62.00
2019-04-20T08:00:41.540Z,61.80
2019-04-20T08:03:19.483Z,60.60
2019-04-20T08:05:40.619Z,59.80
2019-04-20T08:08:20.967Z,59.90
2019-04-20T08:10:38.364Z,59.60
2019-04-20T08:13:26.020Z,59.40
2019-04-20T08:18:27.804Z,59.00
2019-04-20T08:20:52.681Z,58.60
2019-04-20T08:23:23.266Z,58.20
2019-04-20T08:25:44.509Z,58.30
2019-04-20T08:28:06.468Z,58.40
2019-04-20T08:30:51.687Z,57.80
2019-04-20T08:33:30.902Z,57.80
2019-04-20T08:36:09.180Z,60.50
2019-04-20T08:40:58.370Z,58.90
2019-04-20T08:43:43.649Z,59.00
2019-04-20T08:46:06.579Z,60.00
2019-04-20T08:48:33.291Z,60.80
2019-04-20T08:51:05.716Z,60.00
2019-04-20T08:53:36.937Z,59.60
2019-04-20T08:55:55.303Z,59.20
2019-04-20T08:58:15.909Z,58.20
2019-04-20T09:00:49.991Z,56.80
2019-04-20T09:03:21.962Z,56.10
2019-04-20T09:05:57.010Z,55.90
2019-04-20T09:08:23.481Z,56.20
2019-04-20T09:11:05.641Z,56.10
2019-04-20T09:13:28.331Z,55.20
2019-04-20T09:15:47.684Z,56.60
2019-04-20T09:18:30.823Z,56.60
2019-04-20T09:21:01.267Z,56.00
2019-04-20T09:23:40.896Z,56.50
2019-04-20T09:26:14.970Z,56.80
2019-04-20T09:28:37.353Z,55.80
2019-04-20T09:31:18.460Z,54.50
2019-04-20T09:34:10.096Z,54.00
2019-04-20T09:36:40.794Z,52.70
2019-04-20T09:39:15.044Z,54.50
2019-04-20T09:41:59.713Z,54.10
2019-04-20T09:46:50.053Z,52.00
2019-04-20T09:49:26.024Z,51.60
2019-04-20T09:52:03.951Z,50.60
2019-04-20T09:54:32.648Z,50.90
2019-04-20T09:57:09.371Z,52.10
2019-04-20T09:59:33.499Z,51.20
2019-04-20T10:01:54.682Z,51.00
2019-04-20T10:04:17.547Z,51.90
2019-04-20T10:06:47.538Z,51.40
2019-04-20T10:09:20.417Z,50.30
2019-04-20T10:11:47.623Z,49.40
2019-04-20T10:14:17.395Z,49.30
2019-04-20T10:16:47.354Z,49.40
2019-04-20T10:19:20.596Z,50.50
2019-04-20T10:21:46.562Z,50.00
2019-04-20T10:24:16.649Z,49.90
2019-04-20T10:26:45.660Z,49.60
2019-04-20T10:29:15.427Z,49.50
2019-04-20T10:31:52.326Z,48.20
2019-04-20T10:34:15.797Z,47.70
2019-04-20T10:36:46.319Z,48.00
2019-04-20T10:39:20.394Z,45.90
2019-04-20T10:41:54.283Z,44.70
2019-04-20T10:44:20.847Z,45.10
2019-04-20T10:46:51.077Z,44.60
2019-04-20T10:49:20.049Z,45.30
2019-04-20T10:51:49.556Z,44.30
2019-04-20T10:54:18.462Z,44.20
2019-04-20T10:56:47.772Z,42.70
2019-04-20T10:59:16.716Z,41.60
2019-04-20T11:01:45.776Z,41.50
2019-04-20T11:04:14.765Z,42.00
2019-04-20T11:06:44.818Z,41.90
2019-04-20T11:09:14.355Z,40.50
2019-04-20T11:11:44.141Z,39.20
2019-04-20T11:14:22.347Z,38.80
2019-04-20T11:16:44.482Z,38.20
2019-04-20T11:19:13.628Z,38.00
2019-04-20T11:21:44.017Z,36.90
2019-04-20T11:24:14.206Z,36.80
2019-04-20T11:26:43.916Z,36.40
2019-04-20T11:29:13.854Z,34.80
2019-04-20T11:31:47.722Z,34.80
2019-04-20T11:34:35.402Z,34.40
2019-04-20T11:37:03.384Z,34.50
2019-04-20T11:39:32.870Z,35.20
2019-04-20T11:42:01.698Z,33.90
2019-04-20T11:44:32.166Z,32.70
2019-04-20T11:47:00.920Z,32.60
2019-04-20T11:49:29.601Z,32.10
2019-04-20T11:51:59.458Z,32.10
2019-04-20T11:54:28.348Z,32.10
2019-04-20T11:56:57.384Z,31.40
2019-04-20T11:59:27.488Z,31.50
2019-04-20T12:02:05.883Z,31.40
2019-04-20T12:04:44.248Z,31.10
2019-04-20T12:07:06.865Z,29.60
2019-04-20T12:09:35.631Z,28.80
2019-04-20T12:12:17.867Z,27.90
2019-04-20T12:14:34.795Z,26.30
2019-04-20T12:17:04.107Z,26.10
2019-04-20T12:19:34.815Z,27.00
2019-04-20T12:22:03.560Z,27.10
2019-04-20T12:24:33.208Z,27.50
2019-04-20T12:27:02.901Z,28.20
2019-04-20T12:29:32.075Z,28.60
2019-04-20T12:32:02.293Z,28.30
2019-04-20T12:34:31.554Z,27.90
2019-04-20T12:37:00.768Z,28.30
2019-04-20T12:39:29.539Z,28.20
2019-04-20T12:42:02.143Z,28.10
2019-04-20T12:44:29.758Z,27.80
2019-04-20T12:46:59.688Z,28.10
2019-04-20T12:49:29.578Z,28.00
2019-04-20T12:52:02.742Z,28.60
2019-04-20T12:54:29.066Z,29.00
2019-04-20T12:56:58.605Z,29.70
2019-04-20T12:59:27.633Z,30.00
2019-04-20T13:01:57.482Z,29.20
2019-04-20T13:04:26.823Z,29.00
2019-04-20T13:06:57.489Z,29.50
2019-04-20T13:09:30.620Z,30.30
2019-04-20T13:12:08.129Z,29.40
2019-04-20T13:15:00.286Z,28.80
2019-04-20T13:17:30.362Z,28.70
2019-04-20T13:19:59.531Z,28.20
2019-04-20T13:22:28.739Z,27.80
2019-04-20T13:24:58.881Z,26.90
2019-04-20T13:27:29.093Z,27.60
2019-04-20T13:29:58.530Z,27.70
2019-04-20T13:32:27.689Z,27.30
2019-04-20T13:34:56.401Z,26.80
2019-04-20T13:37:26.078Z,26.80
2019-04-20T13:39:56.578Z,27.50
2019-04-20T13:42:29.484Z,27.80
2019-04-20T13:44:57.024Z,27.40
2019-04-20T13:47:28.103Z,27.40
2019-04-20T13:49:56.859Z,27.00
2019-04-20T13:52:26.823Z,26.40
2019-04-20T13:54:55.890Z,25.10
2019-04-20T13:57:26.618Z,25.50
2019-04-20T13:59:58.364Z,26.10
2019-04-20T14:02:31.399Z,26.90
2019-04-20T14:05:02.751Z,26.00
2019-04-20T14:07:33.743Z,26.40
2019-04-20T14:10:03.617Z,24.80
2019-04-20T14:12:37.556Z,24.20
2019-04-20T14:15:03.021Z,23.90
2019-04-20T14:17:32.776Z,23.80
2019-04-20T14:20:07.378Z,24.10
2019-04-20T14:22:33.342Z,24.30
2019-04-20T14:25:02.990Z,24.50
2019-04-20T14:27:32.950Z,23.80
2019-04-20T14:30:01.783Z,20.90
2019-04-20T14:32:38.894Z,21.30
2019-04-20T14:35:09.180Z,21.00
2019-04-20T14:37:46.232Z,20.20
2019-04-20T14:40:16.649Z,19.60
2019-04-20T14:42:49.968Z,20.00
2019-04-20T14:45:16.463Z,21.60
2019-04-20T14:47:45.833Z,21.70
2019-04-20T14:50:15.942Z,22.70
2019-04-20T14:52:44.745Z,22.30
2019-04-20T14:55:16.946Z,20.90
2019-04-20T14:57:44.067Z,20.00
2019-04-20T15:00:35.369Z,19.10
2019-04-20T15:03:10.076Z,18.70
2019-04-20T15:05:41.727Z,18.10
2019-04-20T15:08:10.382Z,18.00
2019-04-20T15:10:39.094Z,17.60
2019-04-20T15:13:09.611Z,18.20
2019-04-20T15:15:38.779Z,19.60
2019-04-20T15:18:13.380Z,19.40
2019-04-20T15:20:43.866Z,20.10
2019-04-20T15:23:15.180Z,19.90
2019-04-20T15:25:44.485Z,18.00
2019-04-20T15:28:14.446Z,18.70
2019-04-20T15:30:44.424Z,19.00
2019-04-20T15:33:14.636Z,19.20
2019-04-20T15:35:44.152Z,18.40
2019-04-20T15:38:13.295Z,17.60
2019-04-20T15:40:42.067Z,17.20
2019-04-20T15:43:16.810Z,17.20
2019-04-20T15:45:41.517Z,17.90
2019-04-20T15:48:10.168Z,17.50
2019-04-20T15:50:39.978Z,16.50
2019-04-20T15:53:09.198Z,16.80
2019-04-20T15:55:40.192Z,16.90
2019-04-20T15:58:08.463Z,16.70
2019-04-20T16:00:38.358Z,17.50
2019-04-20T16:03:11.503Z,17.10
2019-04-20T16:05:42.961Z,16.70
2019-04-20T16:08:16.300Z,16.90
2019-04-20T16:10:45.440Z,17.10
2019-04-20T16:13:23.361Z,16.60
2019-04-20T16:15:45.546Z,16.80
2019-04-20T16:18:14.783Z,16.80
2019-04-20T16:20:55.008Z,16.10
2019-04-20T16:23:14.509Z,15.80
2019-04-20T16:25:45.743Z,16.80
2019-04-20T16:28:14.583Z,15.50
2019-04-20T16:30:43.506Z,15.70
2019-04-20T16:33:12.476Z,14.30
2019-04-20T16:35:42.488Z,14.80
2019-04-20T16:38:11.300Z,15.40
2019-04-20T16:40:40.067Z,15.70
2019-04-20T16:43:17.742Z,15.80
2019-04-20T16:45:39.250Z,16.20
2019-04-20T16:48:08.458Z,16.50
2019-04-20T16:50:37.315Z,17.80
2019-04-20T16:53:06.633Z,18.00
2019-04-20T16:55:36.854Z,18.30
2019-04-20T16:58:06.018Z,18.60
2019-04-20T17:00:35.744Z,19.40
2019-04-20T17:03:04.853Z,19.30
2019-04-20T17:05:34.907Z,19.70
2019-04-20T17:08:04.819Z,19.20
2019-04-20T17:10:34.897Z,18.50
2019-04-20T17:13:04.131Z,18.20
2019-04-20T17:15:33.858Z,18.00
2019-04-20T17:18:03.462Z,17.70
2019-04-20T17:20:32.723Z,17.50
2019-04-20T17:23:03.884Z,18.00
2019-04-20T17:25:32.313Z,19.20
2019-04-20T17:28:20.932Z,19.90
2019-04-20T17:31:13.401Z,20.60
2019-04-20T17:33:58.472Z,20.70
2019-04-20T17:36:21.582Z,21.70
2019-04-20T17:38:54.185Z,22.40
2019-04-20T17:41:41.453Z,22.60
2019-04-20T17:44:07.176Z,22.70
2019-04-20T17:46:32.385Z,22.60
2019-04-20T17:49:07.535Z,23.10
2019-04-20T17:51:41.412Z,23.40
2019-04-20T17:54:05.293Z,23.60
2019-04-20T17:56:33.949Z,24.40
2019-04-20T17:59:04.033Z,26.70
2019-04-20T18:01:49.795Z,31.30
2019-04-20T18:04:41.810Z,33.30
2019-04-20T18:06:53.713Z,35.20
2019-04-20T18:09:34.512Z,37.20
2019-04-20T18:11:47.327Z,37.70
2019-04-20T18:14:35.790Z,38.10
2019-04-20T18:17:05.891Z,38.50
2019-04-20T18:19:29.896Z,39.20
2019-04-20T18:21:59.238Z,39.30
2019-04-20T18:24:49.000Z,39.10
2019-04-20T18:27:14.206Z,39.50
2019-04-20T18:29:45.557Z,40.40
2019-04-20T18:32:17.553Z,41.00
2019-04-20T18:34:52.973Z,41.00
2019-04-20T18:37:21.385Z,40.80
2019-04-20T18:39:57.351Z,40.10
2019-04-20T18:42:26.878Z,40.80
2019-04-20T18:45:08.954Z,40.20
2019-04-20T18:47:40.568Z,40.20
2019-04-20T18:50:01.139Z,40.80
2019-04-20T18:52:21.868Z,41.20
2019-04-20T18:54:53.638Z,41.40
2019-04-20T18:57:27.256Z,41.30
2019-04-20T18:59:54.619Z,41.50
2019-04-20T19:02:27.006Z,41.90
2019-04-20T19:04:53.893Z,43.30
2019-04-20T19:07:23.666Z,43.00
2019-04-20T19:10:00.332Z,43.90
2019-04-20T19:12:34.445Z,44.00
2019-04-20T19:15:12.100Z,44.50
2019-04-20T19:17:41.886Z,45.20
2019-04-20T19:20:08.611Z,44.50
2019-04-20T19:22:38.554Z,44.80
2019-04-20T19:25:09.964Z,45.20
2019-04-20T19:27:46.307Z,44.90
2019-04-20T19:30:21.172Z,45.60
2019-04-20T19:33:02.146Z,46.30
2019-04-20T19:35:25.813Z,46.10
2019-04-20T19:37:56.297Z,46.40
2019-04-20T19:40:29.030Z,46.10
2019-04-20T19:43:01.249Z,45.40
2019-04-20T19:45:44.875Z,45.30
2019-04-20T19:48:04.719Z,46.10
2019-04-20T19:51:05.904Z,45.60
2019-04-20T19:53:32.187Z,46.50
2019-04-20T19:55:52.671Z,46.70
2019-04-20T19:58:25.373Z,46.30
2019-04-20T20:00:51.767Z,46.40
2019-04-20T20:03:19.865Z,45.70
2019-04-20T20:05:51.813Z,45.80
2019-04-20T20:08:23.932Z,45.60
2019-04-20T20:10:50.586Z,46.40
2019-04-20T20:13:27.626Z,46.30
2019-04-20T20:16:04.468Z,45.70
2019-04-20T20:18:41.330Z,46.10
2019-04-20T20:21:07.328Z,45.10
2019-04-20T20:23:25.822Z,45.80
2019-04-20T20:25:58.954Z,45.80
2019-04-20T20:28:37.885Z,45.50
2019-04-20T20:31:09.698Z,45.50
2019-04-20T20:33:43.912Z,44.60
2019-04-20T20:36:07.280Z,44.70
2019-04-20T20:38:37.068Z,44.70
2019-04-20T20:41:10.593Z,44.40
2019-04-20T20:43:46.972Z,43.10
2019-04-20T20:46:16.219Z,43.80
2019-04-20T20:48:54.209Z,43.50
2019-04-20T20:51:23.291Z,43.10
2019-04-20T20:53:49.830Z,42.20
2019-04-20T20:56:10.755Z,41.80
2019-04-20T20:58:48.622Z,42.30
2019-04-20T21:01:10.675Z,42.30
2019-04-20T21:03:40.423Z,42.70
2019-04-20T21:06:05.588Z,43.50
2019-04-20T21:08:38.318Z,44.60
2019-04-20T21:11:13.092Z,44.60
2019-04-20T21:13:40.186Z,44.60
2019-04-20T21:16:14.660Z,44.90
2019-04-20T21:18:50.275Z,45.30
2019-04-20T21:21:21.927Z,45.20
2019-04-20T21:23:48.002Z,44.60
2019-04-20T21:26:18.049Z,44.70
2019-04-20T21:28:42.038Z,44.40
2019-04-20T21:31:14.667Z,44.10
2019-04-20T21:33:42.902Z,44.50
2019-04-20T21:36:13.519Z,44.60
2019-04-20T21:38:44.319Z,44.70
2019-04-20T21:41:16.450Z,45.00
2019-04-20T21:43:44.613Z,45.90
2019-04-20T21:46:14.015Z,47.10
2019-04-20T21:48:57.148Z,48.10
2019-04-20T21:51:29.386Z,48.10
2019-04-20T21:53:44.495Z,48.20
2019-04-20T21:56:13.281Z,47.10
2019-04-20T21:58:49.419Z,46.80
2019-04-20T22:01:22.175Z,46.30
2019-04-20T22:03:44.822Z,46.30
2019-04-20T22:06:16.147Z,45.80
2019-04-20T22:08:51.877Z,46.40
2019-04-20T22:11:15.793Z,46.00
2019-04-20T22:13:47.406Z,46.70
2019-04-20T22:16:18.162Z,47.00
2019-04-20T22:18:52.966Z,47.80
2019-04-20T22:21:25.056Z,48.10
2019-04-20T22:24:04.235Z,48.50
2019-04-20T22:26:29.681Z,48.50
2019-04-20T22:28:47.936Z,49.50
2019-04-20T22:31:18.473Z,49.80
2019-04-20T22:33:48.698Z,49.30
2019-04-20T22:36:18.208Z,49.60
2019-04-20T22:39:07.412Z,49.00
2019-04-20T22:41:38.729Z,48.60
2019-04-20T22:44:13.619Z,49.40
2019-04-20T22:46:40.868Z,49.00
2019-04-20T22:49:29.435Z,48.10
2019-04-20T22:51:50.788Z,48.30
2019-04-20T22:54:44.671Z,48.50
2019-04-20T22:57:11.811Z,48.50
2019-04-20T22:59:38.358Z,49.50
2019-04-20T23:02:03.964Z,49.40
2019-04-20T23:04:33.106Z,49.50
2019-04-20T23:07:02.998Z,49.50
2019-04-20T23:09:34.129Z,49.10
2019-04-20T23:12:09.131Z,48.80
2019-04-20T23:14:34.207Z,49.40
2019-04-20T23:17:04.288Z,49.60
2019-04-20T23:19:40.441Z,49.10
2019-04-20T23:22:27.705Z,49.50
2019-04-20T23:24:55.179Z,49.40
2019-04-20T23:27:31.255Z,48.80
2019-04-20T23:29:58.553Z,47.70
2019-04-20T23:32:30.054Z,48.50
2019-04-20T23:35:05.940Z,48.20
2019-04-20T23:37:32.124Z,48.50
2019-04-20T23:39:58.463Z,48.10
2019-04-20T23:42:34.904Z,49.10
2019-04-20T23:45:17.045Z,48.00
2019-04-20T23:47:55.242Z,47.80
2019-04-20T23:50:37.208Z,48.90
2019-04-20T23:53:06.728Z,48.90
2019-04-20T23:55:19.080Z,49.60
2019-04-20T23:57:54.690Z,50.00
